createdAt,value
2022-08-19T00:02:25.114Z,21.85
2022-08-19T00:04:53.815Z,21.90
2022-08-19T00:07:21.342Z,21.83
2022-08-19T00:09:48.529Z,21.76
2022-08-19T00:12:48.135Z,21.67
2022-08-19T00:15:12.565Z,21.75
2022-08-19T00:17:42.084Z,21.88
2022-08-19T00:20:11.756Z,21.94
2022-08-19T00:22:39.889Z,22.05
2022-08-19T00:25:07.309Z,21.93
2022-08-19T00:27:34.918Z,22.05
2022-08-19T00:30:04.353Z,22.05
2022-08-19T00:32:31.703Z,22.03
2022-08-19T00:35:00.192Z,21.97
2022-08-19T00:37:27.799Z,21.88
2022-08-19T00:39:57.013Z,21.84
2022-08-19T00:42:24.287Z,21.87
2022-08-19T00:44:52.389Z,21.87
2022-08-19T00:47:20.782Z,21.81
2022-08-19T00:49:52.553Z,21.64
2022-08-19T00:52:33.124Z,21.52
2022-08-19T00:58:37.285Z,21.54
2022-08-19T01:01:05.049Z,21.51
2022-08-19T01:03:57.749Z,21.55
2022-08-19T01:06:26.660Z,21.44
2022-08-19T01:08:55.264Z,21.42
2022-08-19T01:11:22.611Z,21.54
2022-08-19T01:13:51.331Z,21.54
2022-08-19T01:16:20.077Z,21.54
2022-08-19T01:18:47.585Z,21.44
2022-08-19T01:21:33.616Z,21.02
2022-08-19T01:24:01.224Z,20.93
2022-08-19T01:26:29.219Z,20.89
2022-08-19T01:29:00.842Z,20.99
2022-08-19T01:31:33.119Z,21.02
2022-08-19T01:34:02.129Z,21.17
2022-08-19T01:36:34.104Z,21.01
2022-08-19T01:39:02.414Z,21.09
2022-08-19T01:41:42.197Z,21.12
2022-08-19T01:44:18.822Z,21.15
2022-08-19T01:46:56.966Z,21.14
2022-08-19T01:49:43.963Z,21.13
2022-08-19T01:52:14.079Z,21.11
2022-08-19T01:54:42.887Z,21.20
2022-08-19T01:57:13.647Z,21.28
2022-08-19T01:59:42.573Z,21.31
2022-08-19T02:02:09.943Z,21.21
2022-08-19T02:04:40.920Z,21.21
2022-08-19T02:07:09.180Z,21.17
2022-08-19T02:09:36.675Z,21.14
2022-08-19T02:12:04.709Z,20.98
2022-08-19T02:14:31.976Z,20.86
2022-08-19T02:16:59.184Z,20.91
2022-08-19T02:19:26.381Z,21.01
2022-08-19T02:21:53.608Z,21.03
2022-08-19T02:24:20.920Z,21.06
2022-08-19T02:26:48.118Z,21.15
2022-08-19T02:29:15.350Z,21.17
2022-08-19T02:31:42.542Z,21.11
2022-08-19T02:34:09.831Z,21.18
2022-08-19T02:36:37.173Z,21.14
2022-08-19T02:39:10.580Z,21.15
2022-08-19T02:41:38.043Z,21.00
2022-08-19T02:44:26.394Z,20.84
2022-08-19T02:46:52.958Z,20.95
2022-08-19T02:49:20.839Z,21.00
2022-08-19T02:51:48.669Z,20.88
2022-08-19T02:54:16.563Z,20.91
2022-08-19T02:56:44.351Z,20.89
2022-08-19T02:59:12.951Z,20.68
2022-08-19T03:01:42.073Z,20.38
2022-08-19T03:04:10.274Z,20.44
2022-08-19T03:06:40.929Z,20.51
2022-08-19T03:09:08.642Z,20.47
2022-08-19T03:11:35.891Z,20.52
2022-08-19T03:14:03.737Z,20.60
2022-08-19T03:16:33.834Z,20.50
2022-08-19T03:19:02.267Z,20.42
2022-08-19T03:21:34.062Z,20.55
2022-08-19T03:24:03.309Z,20.50
2022-08-19T03:26:30.646Z,20.38
2022-08-19T03:28:59.003Z,20.42
2022-08-19T03:31:43.584Z,20.52
2022-08-19T03:34:15.040Z,20.53
2022-08-19T03:36:42.387Z,20.59
2022-08-19T03:39:10.794Z,20.61
2022-08-19T03:41:45.385Z,20.67
2022-08-19T03:44:19.129Z,20.73
2022-08-19T03:46:48.089Z,20.88
2022-08-19T03:49:15.800Z,20.94
2022-08-19T03:51:46.523Z,20.91
2022-08-19T03:54:15.230Z,20.93
2022-08-19T03:56:43.449Z,20.92
2022-08-19T03:59:14.481Z,20.98
2022-08-19T04:01:42.137Z,21.00
2022-08-19T04:04:09.912Z,20.97
2022-08-19T04:06:39.514Z,20.90
2022-08-19T04:09:09.161Z,20.77
2022-08-19T04:11:44.463Z,20.82
2022-08-19T04:14:14.079Z,20.61
2022-08-19T04:16:41.838Z,20.50
2022-08-19T04:19:09.025Z,20.52
2022-08-19T04:21:36.332Z,20.58
2022-08-19T04:24:04.329Z,20.56
2022-08-19T04:26:33.705Z,20.55
2022-08-19T04:29:02.066Z,20.48
2022-08-19T04:31:30.497Z,20.58
2022-08-19T04:33:59.108Z,20.60
2022-08-19T04:36:27.772Z,20.56
2022-08-19T04:38:59.487Z,20.56
2022-08-19T04:41:45.425Z,20.47
2022-08-19T04:44:13.146Z,20.47
2022-08-19T04:46:51.374Z,20.42
2022-08-19T04:49:20.773Z,20.34
2022-08-19T04:51:48.784Z,20.33
2022-08-19T04:54:28.766Z,20.43
2022-08-19T04:57:07.267Z,20.42
2022-08-19T04:59:34.999Z,20.39
2022-08-19T05:02:02.607Z,20.39
2022-08-19T05:04:31.957Z,20.56
2022-08-19T05:07:00.718Z,20.65
2022-08-19T05:09:55.361Z,20.74
2022-08-19T05:12:16.787Z,20.96
2022-08-19T05:14:46.695Z,21.01
2022-08-19T05:17:33.592Z,21.06
2022-08-19T05:20:20.867Z,21.11
2022-08-19T05:22:48.864Z,21.08
2022-08-19T05:25:20.585Z,21.02
2022-08-19T05:27:48.480Z,21.01
2022-08-19T05:30:16.022Z,21.04
2022-08-19T05:32:43.580Z,21.00
2022-08-19T05:35:11.600Z,20.75
2022-08-19T05:37:41.359Z,20.64
2022-08-19T05:40:09.675Z,20.50
2022-08-19T05:42:37.073Z,20.52
2022-08-19T05:45:05.413Z,20.57
2022-08-19T05:47:33.207Z,20.73
2022-08-19T05:50:02.976Z,20.82
2022-08-19T05:52:32.425Z,20.85
2022-08-19T05:55:00.908Z,20.88
2022-08-19T05:57:30.043Z,20.93
2022-08-19T05:59:59.192Z,20.93
2022-08-19T06:02:33.305Z,20.80
2022-08-19T06:05:01.090Z,20.76
2022-08-19T06:07:29.913Z,20.80
2022-08-19T06:10:00.364Z,20.79
2022-08-19T06:12:35.680Z,20.69
2022-08-19T06:15:09.990Z,20.58
2022-08-19T06:17:40.485Z,20.64
2022-08-19T06:20:14.619Z,20.52
2022-08-19T06:22:43.278Z,20.53
2022-08-19T06:25:10.797Z,20.50
2022-08-19T06:27:45.035Z,20.55
2022-08-19T06:33:31.542Z,20.53
2022-08-19T06:35:59.049Z,20.67
2022-08-19T06:38:26.283Z,20.53
2022-08-19T06:41:01.133Z,20.58
2022-08-19T06:43:29.169Z,20.59
2022-08-19T06:45:56.570Z,20.61
2022-08-19T06:48:23.961Z,20.53
2022-08-19T06:50:54.057Z,20.47
2022-08-19T06:53:23.564Z,20.40
2022-08-19T06:56:18.553Z,20.35
2022-08-19T06:58:45.782Z,20.39
2022-08-19T07:01:13.165Z,20.37
2022-08-19T07:03:40.488Z,20.34
2022-08-19T07:06:09.902Z,20.28
2022-08-19T07:08:49.003Z,20.23
2022-08-19T07:11:18.421Z,20.20
2022-08-19T07:13:46.787Z,20.16
2022-08-19T07:16:29.105Z,20.17
2022-08-19T07:18:57.620Z,20.15
2022-08-19T07:21:29.498Z,20.17
2022-08-19T07:23:57.646Z,20.11
2022-08-19T07:26:29.480Z,20.12
2022-08-19T07:28:58.513Z,20.10
2022-08-19T07:31:26.770Z,20.11
2022-08-19T07:33:58.445Z,20.15
2022-08-19T07:36:31.716Z,20.22
2022-08-19T07:38:59.930Z,20.34
2022-08-19T07:41:29.443Z,20.33
2022-08-19T07:43:56.619Z,20.39
2022-08-19T07:46:23.809Z,20.40
2022-08-19T07:48:52.349Z,20.41
2022-08-19T07:51:37.050Z,20.48
2022-08-19T07:54:04.792Z,20.47
2022-08-19T07:56:32.171Z,20.38
2022-08-19T07:58:59.740Z,20.26
2022-08-19T08:01:29.143Z,20.26
2022-08-19T08:04:16.938Z,20.22
2022-08-19T08:07:06.513Z,20.05
2022-08-19T08:09:39.253Z,19.93
2022-08-19T08:12:34.110Z,19.80
2022-08-19T08:15:08.358Z,19.87
2022-08-19T08:20:51.798Z,19.88
2022-08-19T08:23:34.373Z,19.83
2022-08-19T08:26:06.730Z,19.90
2022-08-19T08:28:43.214Z,19.88
2022-08-19T08:31:23.269Z,19.92
2022-08-19T08:33:56.826Z,19.90
2022-08-19T08:36:25.498Z,19.93
2022-08-19T08:41:29.213Z,19.78
2022-08-19T08:44:00.446Z,19.74
2022-08-19T08:46:46.513Z,19.74
2022-08-19T08:49:42.015Z,19.78
2022-08-19T08:52:15.069Z,19.78
2022-08-19T08:54:49.100Z,19.82
2022-08-19T08:57:38.920Z,19.80
2022-08-19T09:00:15.169Z,19.80
2022-08-19T09:02:50.831Z,19.84
2022-08-19T09:05:22.177Z,19.62
2022-08-19T09:07:52.806Z,19.61
2022-08-19T09:10:29.647Z,19.62
2022-08-19T09:13:15.516Z,19.72
2022-08-19T09:15:48.902Z,19.77
2022-08-19T09:18:19.265Z,19.80
2022-08-19T09:20:48.431Z,19.81
2022-08-19T09:23:16.204Z,19.65
2022-08-19T09:25:43.528Z,19.55
2022-08-19T09:28:22.071Z,19.44
2022-08-19T09:30:50.065Z,19.37
2022-08-19T09:33:20.846Z,19.34
2022-08-19T09:35:53.412Z,19.43
2022-08-19T09:38:22.128Z,19.52
2022-08-19T09:40:50.990Z,19.51
2022-08-19T09:43:31.065Z,19.54
2022-08-19T09:46:01.571Z,19.57
2022-08-19T09:48:29.025Z,19.59
2022-08-19T09:50:56.397Z,19.59
2022-08-19T09:53:25.155Z,19.68
2022-08-19T09:55:54.649Z,19.77
2022-08-19T09:58:28.987Z,19.71
2022-08-19T10:01:03.678Z,19.76
2022-08-19T10:03:39.782Z,19.78
2022-08-19T10:07:36.337Z,19.89
2022-08-19T10:10:24.866Z,19.86
2022-08-19T10:13:07.560Z,19.89
2022-08-19T10:15:47.322Z,19.93
2022-08-19T10:18:29.544Z,20.01
2022-08-19T10:21:25.678Z,19.98
2022-08-19T10:26:04.286Z,20.13
2022-08-19T10:27:55.880Z,20.07
2022-08-19T10:30:55.053Z,20.18
2022-08-19T10:33:38.806Z,20.22
2022-08-19T10:36:24.006Z,20.24
2022-08-19T10:38:56.719Z,20.40
2022-08-19T10:41:32.802Z,20.36
2022-08-19T10:44:06.311Z,20.39
2022-08-19T10:46:35.294Z,20.37
2022-08-19T10:49:04.047Z,20.49
2022-08-19T10:51:50.671Z,20.42
2022-08-19T10:54:31.149Z,20.51
2022-08-19T10:56:58.841Z,20.65
2022-08-19T10:59:31.444Z,20.73
2022-08-19T11:02:02.696Z,20.75
2022-08-19T11:04:30.257Z,20.78
2022-08-19T11:06:58.014Z,20.80
2022-08-19T11:09:33.691Z,20.85
2022-08-19T11:12:02.696Z,20.90
2022-08-19T11:14:32.194Z,20.97
2022-08-19T11:17:02.049Z,21.07
2022-08-19T11:19:29.940Z,21.22
2022-08-19T11:22:00.154Z,21.18
2022-08-19T11:24:28.676Z,21.35
2022-08-19T11:27:02.472Z,21.40
2022-08-19T11:29:30.232Z,21.61
2022-08-19T11:31:57.585Z,21.81
2022-08-19T11:34:28.845Z,21.99
2022-08-19T11:36:59.741Z,22.29
2022-08-19T11:39:28.333Z,22.21
2022-08-19T11:41:55.876Z,22.08
2022-08-19T11:44:23.413Z,22.10
2022-08-19T11:46:50.719Z,22.10
2022-08-19T11:49:20.015Z,22.15
2022-08-19T11:51:48.009Z,22.19
2022-08-19T11:54:15.761Z,22.10
2022-08-19T11:56:43.365Z,22.03
2022-08-19T11:59:14.644Z,21.99
2022-08-19T12:01:43.656Z,22.05
2022-08-19T12:04:11.484Z,22.21
2022-08-19T12:06:40.456Z,22.30
2022-08-19T12:09:10.136Z,22.30
2022-08-19T12:11:38.716Z,22.28
2022-08-19T12:14:06.481Z,22.41
2022-08-19T12:16:33.852Z,22.31
2022-08-19T12:19:04.894Z,22.28
2022-08-19T12:21:33.877Z,22.35
2022-08-19T12:24:01.882Z,22.47
2022-08-19T12:26:30.092Z,22.54
2022-08-19T12:28:57.335Z,22.59
2022-08-19T12:31:24.617Z,22.54
2022-08-19T12:33:53.335Z,22.49
2022-08-19T12:36:39.011Z,22.58
2022-08-19T12:39:07.552Z,22.58
2022-08-19T12:41:45.046Z,22.55
2022-08-19T12:44:29.157Z,22.60
2022-08-19T12:46:59.586Z,22.50
2022-08-19T12:49:52.354Z,22.60
2022-08-19T12:52:23.023Z,22.52
2022-08-19T12:54:54.131Z,22.50
2022-08-19T12:57:33.015Z,22.52
2022-08-19T13:00:02.124Z,22.56
2022-08-19T13:02:39.059Z,22.52
2022-08-19T13:05:09.394Z,22.57
2022-08-19T13:07:40.896Z,22.66
2022-08-19T13:10:10.846Z,22.61
2022-08-19T13:12:38.985Z,22.67
2022-08-19T13:15:10.551Z,22.75
2022-08-19T13:17:39.359Z,22.66
2022-08-19T13:20:09.018Z,22.76
2022-08-19T13:22:37.021Z,22.70
2022-08-19T13:25:05.341Z,22.75
2022-08-19T13:27:32.640Z,22.73
2022-08-19T13:30:19.161Z,22.75
2022-08-19T13:33:05.090Z,22.76
2022-08-19T13:35:32.458Z,22.94
2022-08-19T13:37:59.819Z,23.04
2022-08-19T13:40:27.922Z,23.10
2022-08-19T13:42:55.895Z,23.13
2022-08-19T13:45:25.289Z,23.17
2022-08-19T13:47:59.114Z,23.30
2022-08-19T13:50:28.329Z,23.39
2022-08-19T13:52:57.329Z,23.32
2022-08-19T13:55:25.518Z,23.31
2022-08-19T13:57:54.134Z,23.29
2022-08-19T14:00:22.548Z,23.16
2022-08-19T14:02:52.317Z,23.26
2022-08-19T14:05:20.979Z,23.13
2022-08-19T14:07:49.174Z,23.22
2022-08-19T14:10:17.146Z,23.22
2022-08-19T14:12:44.373Z,23.16
2022-08-19T14:15:12.383Z,23.11
2022-08-19T14:17:40.417Z,23.10
2022-08-19T14:20:10.942Z,23.19
2022-08-19T14:22:40.004Z,23.38
2022-08-19T14:25:09.645Z,23.41
2022-08-19T14:27:37.798Z,23.49
2022-08-19T14:30:07.819Z,23.48
2022-08-19T14:32:35.731Z,23.52
2022-08-19T14:35:03.644Z,23.56
2022-08-19T14:37:30.871Z,23.60
2022-08-19T14:39:58.387Z,23.63
2022-08-19T14:42:25.832Z,23.65
2022-08-19T14:44:53.427Z,23.61
2022-08-19T14:47:20.654Z,23.64
2022-08-19T14:49:50.300Z,23.71
2022-08-19T14:52:17.677Z,23.76
2022-08-19T14:54:45.298Z,23.75
2022-08-19T14:57:13.557Z,23.74
2022-08-19T14:59:40.745Z,23.72
2022-08-19T15:02:33.642Z,23.75
2022-08-19T15:04:58.958Z,23.81
2022-08-19T15:07:29.106Z,23.85
2022-08-19T15:09:57.691Z,23.89
2022-08-19T15:12:25.068Z,23.91
2022-08-19T15:14:55.883Z,23.94
2022-08-19T15:17:43.551Z,24.00
2022-08-19T15:20:13.571Z,23.99
2022-08-19T15:22:43.407Z,24.05
2022-08-19T15:25:11.979Z,24.03
2022-08-19T15:27:40.638Z,23.98
2022-08-19T15:30:09.290Z,23.97
2022-08-19T15:32:37.440Z,23.95
2022-08-19T15:35:06.063Z,23.97
2022-08-19T15:37:34.388Z,24.00
2022-08-19T15:40:05.920Z,24.02
2022-08-19T15:42:33.512Z,24.02
2022-08-19T15:45:02.034Z,24.10
2022-08-19T15:47:35.201Z,24.09
2022-08-19T15:50:21.406Z,24.09
2022-08-19T15:52:50.438Z,24.09
2022-08-19T15:55:33.205Z,24.11
2022-08-19T15:58:28.252Z,24.13
2022-08-19T16:01:21.160Z,24.13
2022-08-19T16:04:11.295Z,24.08
2022-08-19T16:06:44.834Z,24.08
2022-08-19T16:09:13.150Z,24.09
2022-08-19T16:11:45.610Z,24.10
2022-08-19T16:14:19.861Z,24.09
2022-08-19T16:16:47.727Z,24.07
2022-08-19T16:19:19.883Z,24.04
2022-08-19T16:21:48.763Z,23.95
2022-08-19T16:24:16.913Z,23.92
2022-08-19T16:26:44.567Z,23.92
2022-08-19T16:29:13.299Z,23.94
2022-08-19T16:31:42.260Z,23.96
2022-08-19T16:34:10.220Z,24.00
2022-08-19T16:36:41.905Z,24.06
2022-08-19T16:39:10.791Z,24.09
2022-08-19T16:41:38.633Z,24.11
2022-08-19T16:44:06.795Z,24.12
2022-08-19T16:46:34.169Z,24.11
2022-08-19T16:49:01.383Z,24.08
2022-08-19T16:51:28.543Z,24.06
2022-08-19T16:53:56.051Z,24.01
2022-08-19T16:56:25.627Z,23.99
2022-08-19T16:58:53.957Z,24.01
2022-08-19T17:01:21.572Z,24.01
2022-08-19T17:03:50.362Z,24.01
2022-08-19T17:06:20.842Z,23.99
2022-08-19T17:08:49.956Z,23.96
2022-08-19T17:11:19.082Z,23.92
2022-08-19T17:13:48.426Z,23.89
2022-08-19T17:16:17.018Z,23.86
2022-08-19T17:18:44.267Z,23.83
2022-08-19T17:21:13.179Z,23.78
2022-08-19T17:23:43.617Z,23.70
2022-08-19T17:26:16.852Z,23.64
2022-08-19T17:28:49.928Z,23.53
2022-08-19T17:31:18.612Z,23.51
2022-08-19T17:33:48.106Z,23.47
2022-08-19T17:36:19.705Z,23.43
2022-08-19T17:38:46.996Z,23.43
2022-08-19T17:41:14.213Z,23.38
2022-08-19T17:43:43.804Z,23.35
2022-08-19T17:46:18.093Z,23.29
2022-08-19T17:48:51.937Z,23.24
2022-08-19T17:51:23.928Z,23.21
2022-08-19T17:53:53.159Z,23.10
2022-08-19T17:56:20.611Z,23.01
2022-08-19T17:58:57.751Z,22.99
2022-08-19T18:01:43.786Z,23.00
2022-08-19T18:04:17.199Z,22.97
2022-08-19T18:06:46.007Z,22.94
2022-08-19T18:09:26.085Z,23.02
2022-08-19T18:11:54.595Z,23.09
2022-08-19T18:14:28.090Z,23.06
2022-08-19T18:17:00.488Z,23.07
2022-08-19T18:19:30.176Z,23.03
2022-08-19T18:22:09.542Z,22.96
2022-08-19T18:24:42.102Z,22.91
2022-08-19T18:27:10.142Z,22.95
2022-08-19T18:29:38.764Z,22.93
2022-08-19T18:32:09.124Z,22.88
2022-08-19T18:34:36.686Z,22.91
2022-08-19T18:37:04.300Z,22.84
2022-08-19T18:39:50.280Z,22.80
2022-08-19T18:42:36.531Z,22.79
2022-08-19T18:45:23.498Z,22.73
2022-08-19T18:48:25.819Z,22.68
2022-08-19T18:50:59.027Z,22.63
2022-08-19T18:53:27.423Z,22.58
2022-08-19T18:55:55.545Z,22.53
2022-08-19T18:58:32.304Z,22.40
2022-08-19T19:01:02.031Z,22.33
2022-08-19T19:03:29.287Z,22.41
2022-08-19T19:05:56.545Z,22.44
2022-08-19T19:08:27.458Z,22.52
2022-08-19T19:10:56.039Z,22.48
2022-08-19T19:13:23.465Z,22.42
2022-08-19T19:15:50.814Z,22.41
2022-08-19T19:18:18.087Z,22.37
2022-08-19T19:20:45.423Z,22.30
2022-08-19T19:23:12.732Z,22.20
2022-08-19T19:25:50.025Z,22.10
2022-08-19T19:28:25.587Z,22.15
2022-08-19T19:30:54.492Z,22.20
2022-08-19T19:33:21.882Z,22.13
2022-08-19T19:35:49.169Z,21.86
2022-08-19T19:38:16.368Z,21.83
2022-08-19T19:40:43.543Z,21.89
2022-08-19T19:43:10.836Z,21.88
2022-08-19T19:45:38.268Z,21.84
2022-08-19T19:48:05.769Z,21.83
2022-08-19T19:50:33.012Z,21.85
2022-08-19T19:53:00.206Z,21.82
2022-08-19T19:55:28.923Z,21.80
2022-08-19T19:57:57.792Z,21.77
2022-08-19T20:00:25.366Z,21.77
2022-08-19T20:02:55.257Z,21.73
2022-08-19T20:05:22.922Z,21.67
2022-08-19T20:08:09.313Z,21.63
2022-08-19T20:10:37.118Z,21.62
2022-08-19T20:13:05.028Z,21.62
2022-08-19T20:15:32.875Z,21.60
2022-08-19T20:18:00.959Z,21.62
2022-08-19T20:20:28.433Z,21.59
2022-08-19T20:22:56.029Z,21.56
2022-08-19T20:25:23.846Z,21.48
2022-08-19T20:27:51.122Z,21.49
2022-08-19T20:30:19.864Z,21.49
2022-08-19T20:32:48.028Z,21.47
2022-08-19T20:35:20.447Z,21.46
2022-08-19T20:37:47.760Z,21.42
2022-08-19T20:40:15.455Z,21.36
2022-08-19T20:42:43.256Z,21.37
2022-08-19T20:45:18.008Z,21.37
2022-08-19T20:47:59.347Z,21.38
2022-08-19T20:50:29.889Z,21.39
2022-08-19T20:52:57.656Z,21.37
2022-08-19T20:55:26.598Z,21.38
2022-08-19T20:57:54.533Z,21.35
2022-08-19T21:00:22.406Z,21.34
2022-08-19T21:02:49.633Z,21.33
2022-08-19T21:05:16.882Z,21.11
2022-08-19T21:07:44.403Z,21.12
2022-08-19T21:10:11.774Z,21.17
2022-08-19T21:12:39.455Z,21.30
2022-08-19T21:15:07.305Z,21.31
2022-08-19T21:17:34.650Z,21.18
2022-08-19T21:20:02.219Z,21.16
2022-08-19T21:22:29.424Z,21.23
2022-08-19T21:24:56.643Z,21.26
2022-08-19T21:27:23.876Z,21.25
2022-08-19T21:29:51.742Z,21.27
2022-08-19T21:32:19.697Z,21.26
2022-08-19T21:34:47.220Z,21.21
2022-08-19T21:37:25.742Z,21.18
2022-08-19T21:39:54.212Z,21.20
2022-08-19T21:42:24.328Z,21.02
2022-08-19T21:44:51.663Z,20.99
2022-08-19T21:47:18.922Z,20.99
2022-08-19T21:49:46.288Z,20.84
2022-08-19T21:52:13.762Z,20.81
2022-08-19T21:54:41.017Z,20.90
2022-08-19T21:57:10.146Z,20.96
2022-08-19T21:59:43.471Z,20.96
2022-08-19T22:02:19.945Z,20.94
2022-08-19T22:04:48.572Z,20.91
2022-08-19T22:07:15.827Z,20.70
2022-08-19T22:09:44.520Z,20.64
2022-08-19T22:12:21.574Z,20.71
2022-08-19T22:14:49.281Z,20.79
2022-08-19T22:17:17.001Z,20.82
2022-08-19T22:19:44.600Z,20.73
2022-08-19T22:22:12.624Z,20.72
2022-08-19T22:24:39.981Z,20.79
2022-08-19T22:27:08.513Z,20.93
2022-08-19T22:29:37.427Z,21.07
2022-08-19T22:32:17.799Z,21.08
2022-08-19T22:34:52.556Z,20.97
2022-08-19T22:37:19.766Z,20.89
2022-08-19T22:39:47.167Z,20.86
2022-08-19T22:42:17.799Z,20.60
2022-08-19T22:44:46.044Z,20.57
2022-08-19T22:47:13.423Z,20.69
2022-08-19T22:49:40.662Z,20.73
2022-08-19T22:52:20.236Z,20.73
2022-08-19T22:54:51.954Z,20.81
2022-08-19T22:57:20.503Z,20.90
2022-08-19T22:59:48.848Z,20.85
2022-08-19T23:02:21.567Z,20.79
2022-08-19T23:04:49.868Z,20.66
2022-08-19T23:07:18.310Z,20.73
2022-08-19T23:09:51.290Z,20.79
2022-08-19T23:12:47.688Z,20.75
2022-08-19T23:15:18.627Z,20.74
2022-08-19T23:17:46.663Z,20.71
2022-08-19T23:20:14.819Z,20.68
2022-08-19T23:22:46.879Z,20.71
2022-08-19T23:25:16.294Z,20.69
2022-08-19T23:28:02.962Z,20.70
2022-08-19T23:30:31.288Z,20.75
2022-08-19T23:33:09.739Z,20.72
2022-08-19T23:35:41.052Z,20.68
2022-08-19T23:38:09.533Z,20.67
2022-08-19T23:40:37.350Z,20.64
2022-08-19T23:43:07.908Z,20.58
2022-08-19T23:45:38.257Z,20.46
2022-08-19T23:48:06.420Z,20.32
2022-08-19T23:50:34.180Z,20.35
2022-08-19T23:53:01.914Z,20.36
2022-08-19T23:55:30.993Z,20.36
2022-08-19T23:57:59.116Z,20.33
